Time;durP1;ratioP1;P1;durP2;ratioP2;P2;SDS_P1;SDS_P2;PMS_P1;PMS_P2;Temp;Humidity;BMP_temperature;BMP_pressure;BME280_temperature;BME280_humidity;BME280_pressure;Samples;Min_cycle;Max_cycle;Signal;HPM_P1;HPM_P2
2022/01/17 00:01:18;;;;;;;44.53;20.48;;;;;;;;;;4994105;28;20158;-41
2022/01/17 00:03:44;;;;;;;33.15;17.05;;;;;;;;;;4993716;28;20038;-41
2022/01/17 00:06:10;;;;;;;24.60;14.82;;;;;;;;;;4994001;28;20142;-41
2022/01/17 00:08:41;;;;;;;39.67;19.23;;;;;;;;;;4993994;28;20546;-41
2022/01/17 00:11:07;;;;;;;43.45;17.77;;;;;;;;;;4993924;28;20092;-41
2022/01/17 00:13:32;;;;;;;43.17;20.38;;;;;;;;;;4993594;28;20018;-40
2022/01/17 00:16:05;;;;;;;32.65;16.48;;;;;;;;;;4993552;28;20030;-41
2022/01/17 00:19:04;;;;;;;24.02;12.35;;;;;;;;;;4993449;28;20533;-41
2022/01/17 00:21:17;;;;;;;28.17;14.50;;;;;;;;;;4992943;28;20034;-41
2022/01/17 00:23:43;;;;;;;42.25;22.90;;;;;;;;;;4993360;28;20022;-41
2022/01/17 00:26:08;;;;;;;47.40;21.65;;;;;;;;;;4993433;28;20072;-41
2022/01/17 00:28:34;;;;;;;48.08;20.23;;;;;;;;;;4993280;28;20494;-42
2022/01/17 00:31:05;;;;;;;42.33;20.85;;;;;;;;;;4993636;28;20038;-41
2022/01/17 00:33:31;;;;;;;42.97;22.33;;;;;;;;;;4993487;28;20053;-41
2022/01/17 00:35:57;;;;;;;34.00;18.23;;;;;;;;;;4993509;28;20026;-41
2022/01/17 00:38:22;;;;;;;56.22;23.48;;;;;;;;;;4993499;28;20490;-40
2022/01/17 00:40:48;;;;;;;43.70;20.08;;;;;;;;;;4993102;28;20030;-41
2022/01/17 00:43:14;;;;;;;52.75;21.80;;;;;;;;;;4993089;28;20057;-41
2022/01/17 00:45:42;;;;;;;45.42;20.75;;;;;;;;;;4991873;28;20065;-41
2022/01/17 00:48:08;;;;;;;42.47;21.17;;;;;;;;;;4992920;28;20081;-41
2022/01/17 00:50:37;;;;;;;44.70;19.85;;;;;;;;;;4993328;28;20022;-41
2022/01/17 00:53:04;;;;;;;50.33;20.50;;;;;;;;;;4993317;28;20117;-41
2022/01/17 00:55:31;;;;;;;42.58;18.17;;;;;;;;;;4993275;28;20106;-41
2022/01/17 00:57:56;;;;;;;47.28;22.10;;;;;;;;;;4992795;28;20054;-41
2022/01/17 01:00:22;;;;;;;42.88;20.25;;;;;;;;;;4993253;28;20030;-41
2022/01/17 01:02:47;;;;;;;25.08;13.73;;;;;;;;;;4993023;28;20483;-41
2022/01/17 01:05:13;;;;;;;32.72;17.10;;;;;;;;;;4991950;28;20027;-40
2022/01/17 01:07:38;;;;;;;35.58;16.77;;;;;;;;;;4993250;28;20121;-41
2022/01/17 01:10:10;;;;;;;46.67;21.65;;;;;;;;;;4992904;28;20049;-41
2022/01/17 01:12:40;;;;;;;44.03;21.75;;;;;;;;;;4993171;28;20378;-41
2022/01/17 01:15:12;;;;;;;45.03;19.67;;;;;;;;;;4993134;28;20112;-41
2022/01/17 01:17:48;;;;;;;51.85;22.92;;;;;;;;;;4993088;28;20264;-40
2022/01/17 01:28:09;;;;;;;33.55;18.33;;;;;;;;;;4993043;28;20433;-41
2022/01/17 01:30:40;;;;;;;45.50;21.48;;;;;;;;;;4993090;28;20027;-41
2022/01/17 01:33:05;;;;;;;42.28;18.75;;;;;;;;;;4993044;28;20045;-40
2022/01/17 01:35:32;;;;;;;39.92;19.58;;;;;;;;;;4992792;28;20030;-41
2022/01/17 01:37:59;;;;;;;44.75;20.35;;;;;;;;;;4992620;28;20038;-41
2022/01/17 01:40:26;;;;;;;45.92;19.52;;;;;;;;;;4992691;28;20023;-41
2022/01/17 01:42:52;;;;;;;42.20;20.65;;;;;;;;;;4992669;28;20101;-41
2022/01/17 01:45:20;;;;;;;49.60;22.25;;;;;;;;;;4992868;28;20033;-41
2022/01/17 01:47:45;;;;;;;45.63;21.42;;;;;;;;;;4992534;28;20061;-41
2022/01/17 01:50:12;;;;;;;57.67;23.00;;;;;;;;;;4992496;28;20038;-41
2022/01/17 01:52:41;;;;;;;54.45;24.17;;;;;;;;;;4992614;28;20072;-41
2022/01/17 01:55:08;;;;;;;44.92;18.80;;;;;;;;;;4993055;28;20081;-41
2022/01/17 01:57:33;;;;;;;40.88;18.42;;;;;;;;;;4991100;28;20093;-41
2022/01/17 01:59:59;;;;;;;32.20;13.85;;;;;;;;;;4992758;28;20038;-41
2022/01/17 02:02:24;;;;;;;37.90;17.80;;;;;;;;;;4995872;28;20486;-41
2022/01/17 02:04:50;;;;;;;33.53;16.77;;;;;;;;;;4996205;28;20022;-41
2022/01/17 02:07:15;;;;;;;43.53;19.23;;;;;;;;;;4996250;28;20058;-40
2022/01/17 02:09:42;;;;;;;32.05;17.55;;;;;;;;;;4996199;28;20033;-40
2022/01/17 02:12:08;;;;;;;42.42;20.20;;;;;;;;;;4996040;28;20033;-41
2022/01/17 02:14:33;;;;;;;47.95;21.20;;;;;;;;;;4995817;28;20513;-41
2022/01/17 02:17:04;;;;;;;33.80;16.65;;;;;;;;;;4996046;28;20058;-40
2022/01/17 02:19:30;;;;;;;44.22;18.85;;;;;;;;;;4995912;28;20034;-42
2022/01/17 02:21:56;;;;;;;45.55;22.60;;;;;;;;;;4995699;28;20552;-41
2022/01/17 02:24:22;;;;;;;44.55;20.58;;;;;;;;;;4995597;28;20034;-41
2022/01/17 02:26:50;;;;;;;40.05;18.00;;;;;;;;;;4995821;28;20041;-41
2022/01/17 02:29:16;;;;;;;43.88;21.05;;;;;;;;;;4995747;28;20030;-41
2022/01/17 02:31:43;;;;;;;36.25;16.95;;;;;;;;;;4995746;28;20033;-41
2022/01/17 02:34:09;;;;;;;41.83;19.05;;;;;;;;;;4995318;28;20026;-41
2022/01/17 02:36:34;;;;;;;48.13;22.42;;;;;;;;;;4995374;28;20054;-41
2022/01/17 02:39:03;;;;;;;40.50;18.40;;;;;;;;;;4995207;28;20116;-41
2022/01/17 02:41:31;;;;;;;30.60;15.75;;;;;;;;;;4995509;28;20036;-40
2022/01/17 02:43:57;;;;;;;41.30;20.40;;;;;;;;;;4995536;28;20028;-41
2022/01/17 02:46:25;;;;;;;46.53;20.65;;;;;;;;;;4995415;28;20034;-43
2022/01/17 02:48:51;;;;;;;53.33;22.75;;;;;;;;;;4995402;28;20073;-41
2022/01/17 02:51:17;;;;;;;46.75;18.35;;;;;;;;;;4995272;28;20470;-41
2022/01/17 02:53:42;;;;;;;47.65;20.73;;;;;;;;;;4995070;28;20030;-41
2022/01/17 02:56:10;;;;;;;40.40;18.88;;;;;;;;;;4993708;28;20035;-41
2022/01/17 02:58:38;;;;;;;41.80;19.83;;;;;;;;;;4994762;28;20056;-41
2022/01/17 03:01:10;;;;;;;37.42;18.98;;;;;;;;;;4995241;28;20034;-41
2022/01/17 03:03:36;;;;;;;43.00;20.67;;;;;;;;;;4995175;28;20065;-41
2022/01/17 03:06:02;;;;;;;52.90;22.67;;;;;;;;;;4995101;28;20034;-41
2022/01/17 03:08:30;;;;;;;42.42;21.48;;;;;;;;;;4994996;28;20037;-41
2022/01/17 03:10:57;;;;;;;42.00;18.20;;;;;;;;;;4994764;28;20110;-41
2022/01/17 03:13:31;;;;;;;39.75;17.58;;;;;;;;;;4994617;28;20466;-40
2022/01/17 03:15:59;;;;;;;39.53;17.13;;;;;;;;;;4993917;28;20034;-41
2022/01/17 03:18:39;;;;;;;44.95;21.05;;;;;;;;;;4993841;28;20109;-40
2022/01/17 03:21:06;;;;;;;46.67;20.67;;;;;;;;;;4994845;28;20034;-41
2022/01/17 03:23:31;;;;;;;44.80;20.38;;;;;;;;;;4993423;28;20161;-41
2022/01/17 03:25:57;;;;;;;49.05;20.50;;;;;;;;;;4992881;28;20113;-41
2022/01/17 03:28:22;;;;;;;40.58;18.92;;;;;;;;;;4993031;28;20030;-42
2022/01/17 03:30:48;;;;;;;42.22;17.70;;;;;;;;;;4993187;28;20018;-40
2022/01/17 03:33:15;;;;;;;34.00;14.35;;;;;;;;;;4992936;28;20474;-41
2022/01/17 03:35:41;;;;;;;35.35;15.85;;;;;;;;;;4992780;28;20026;-41
2022/01/17 03:38:09;;;;;;;41.83;19.33;;;;;;;;;;4992798;28;20031;-42
2022/01/17 03:40:36;;;;;;;41.05;17.00;;;;;;;;;;4992872;28;20129;-40
2022/01/17 03:43:03;;;;;;;33.67;16.30;;;;;;;;;;4992897;28;20376;-40
2022/01/17 03:45:29;;;;;;;36.13;16.63;;;;;;;;;;4992849;28;20486;-41
2022/01/17 03:47:54;;;;;;;40.13;17.25;;;;;;;;;;4992710;28;20067;-41
2022/01/17 03:50:23;;;;;;;33.30;16.17;;;;;;;;;;4992578;28;20027;-43
2022/01/17 03:52:49;;;;;;;27.65;14.18;;;;;;;;;;4992728;28;20053;-43
2022/01/17 03:55:17;;;;;;;32.10;14.70;;;;;;;;;;4994203;28;20368;-41
2022/01/17 03:57:43;;;;;;;30.42;13.70;;;;;;;;;;4993788;28;20383;-41
2022/01/17 04:00:21;;;;;;;24.58;10.98;;;;;;;;;;4993742;28;20057;-41
2022/01/17 04:02:47;;;;;;;37.60;15.75;;;;;;;;;;4993889;28;20057;-41
2022/01/17 04:05:13;;;;;;;34.10;15.98;;;;;;;;;;4993711;28;20477;-41
2022/01/17 04:07:38;;;;;;;36.58;16.92;;;;;;;;;;4994019;28;20114;-41
2022/01/17 04:10:04;;;;;;;31.35;13.07;;;;;;;;;;4994028;28;20062;-41
2022/01/17 04:12:30;;;;;;;27.75;13.93;;;;;;;;;;4992687;28;20383;-40
2022/01/17 04:14:56;;;;;;;34.22;15.65;;;;;;;;;;4993859;28;20026;-41
2022/01/17 04:17:27;;;;;;;30.73;13.10;;;;;;;;;;4993810;28;20463;-41
2022/01/17 04:19:59;;;;;;;37.28;16.60;;;;;;;;;;4993759;28;20040;-41
2022/01/17 04:22:25;;;;;;;26.38;11.40;;;;;;;;;;4993765;28;20253;-41
2022/01/17 04:24:51;;;;;;;26.48;13.50;;;;;;;;;;4993037;28;20031;-41
2022/01/17 04:27:17;;;;;;;27.88;12.93;;;;;;;;;;4993406;28;20361;-40
2022/01/17 04:29:42;;;;;;;23.90;12.02;;;;;;;;;;4993411;28;20022;-41
2022/01/17 04:32:08;;;;;;;29.08;12.68;;;;;;;;;;4993347;28;20113;-41
2022/01/17 04:34:34;;;;;;;25.52;13.18;;;;;;;;;;4993334;28;20022;-41
2022/01/17 04:37:00;;;;;;;19.40;10.52;;;;;;;;;;4993612;28;20032;-42
2022/01/17 04:39:25;;;;;;;15.27;8.07;;;;;;;;;;4993406;28;20475;-41
2022/01/17 04:41:51;;;;;;;25.20;12.05;;;;;;;;;;4993176;28;20483;-41
2022/01/17 04:47:00;;;;;;;22.27;11.90;;;;;;;;;;4993244;28;20390;-41
2022/01/17 04:49:26;;;;;;;25.45;10.85;;;;;;;;;;4993121;28;20030;-40
2022/01/17 04:51:54;;;;;;;27.15;11.23;;;;;;;;;;4993166;28;20038;-41
2022/01/17 04:56:46;;;;;;;29.13;11.63;;;;;;;;;;4993063;28;20486;-42
2022/01/17 04:59:12;;;;;;;28.20;14.82;;;;;;;;;;4992984;28;20086;-41
2022/01/17 05:01:37;;;;;;;27.98;12.55;;;;;;;;;;4993316;28;20030;-40
2022/01/17 05:04:03;;;;;;;28.67;12.95;;;;;;;;;;4991780;28;20022;-42
2022/01/17 05:06:28;;;;;;;28.52;13.75;;;;;;;;;;4992921;28;20061;-43
2022/01/17 05:08:54;;;;;;;28.05;13.20;;;;;;;;;;4991945;28;20039;-41
2022/01/17 05:11:24;;;;;;;24.33;12.02;;;;;;;;;;4992918;28;20031;-41
2022/01/17 05:13:49;;;;;;;25.00;12.25;;;;;;;;;;4993151;28;20022;-42
2022/01/17 05:16:16;;;;;;;24.75;12.02;;;;;;;;;;4993157;28;20370;-41
2022/01/17 05:21:07;;;;;;;29.80;12.60;;;;;;;;;;4993168;28;20033;-41
2022/01/17 05:23:33;;;;;;;23.10;11.65;;;;;;;;;;4992989;28;20057;-41
2022/01/17 05:25:59;;;;;;;24.77;11.88;;;;;;;;;;4993071;28;20117;-42
2022/01/17 05:28:25;;;;;;;30.10;11.90;;;;;;;;;;4992750;28;20067;-41
2022/01/17 05:30:50;;;;;;;24.80;12.25;;;;;;;;;;4992837;28;20035;-41
2022/01/17 05:33:16;;;;;;;21.98;10.73;;;;;;;;;;4991442;28;20038;-42
2022/01/17 05:35:41;;;;;;;20.52;10.35;;;;;;;;;;4993552;28;20026;-41
2022/01/17 05:38:06;;;;;;;23.48;10.68;;;;;;;;;;4996679;28;20033;-42
2022/01/17 05:40:32;;;;;;;22.02;10.65;;;;;;;;;;4996457;28;20030;-43
2022/01/17 05:42:57;;;;;;;27.52;12.05;;;;;;;;;;4978947;28;20025;-41
2022/01/17 05:45:23;;;;;;;26.27;11.30;;;;;;;;;;4996413;28;20027;-42
2022/01/17 05:47:48;;;;;;;25.98;11.63;;;;;;;;;;4996282;28;20068;-42
2022/01/17 05:50:15;;;;;;;23.60;11.18;;;;;;;;;;4994513;28;20030;-42
2022/01/17 05:52:41;;;;;;;21.67;12.23;;;;;;;;;;4994823;28;20058;-41
2022/01/17 05:55:09;;;;;;;22.52;10.68;;;;;;;;;;4994791;28;20053;-45
2022/01/17 05:57:34;;;;;;;20.15;9.02;;;;;;;;;;4994530;28;20046;-41
2022/01/17 06:00:00;;;;;;;13.68;6.97;;;;;;;;;;4994485;28;20033;-41
2022/01/17 06:02:26;;;;;;;18.55;8.38;;;;;;;;;;4994863;28;20031;-41
2022/01/17 06:04:52;;;;;;;18.25;8.65;;;;;;;;;;4994314;28;20470;-41
2022/01/17 06:07:17;;;;;;;15.52;7.88;;;;;;;;;;4994747;28;20041;-41
2022/01/17 06:09:43;;;;;;;19.80;8.57;;;;;;;;;;4995042;28;20105;-41
2022/01/17 06:12:09;;;;;;;16.55;7.65;;;;;;;;;;4995881;28;20025;-44
2022/01/17 06:14:35;;;;;;;15.15;7.65;;;;;;;;;;4996095;28;20022;-41
2022/01/17 06:17:00;;;;;;;19.55;9.73;;;;;;;;;;4996055;28;20022;-41
2022/01/17 06:19:26;;;;;;;16.10;8.15;;;;;;;;;;4995580;28;20105;-41
2022/01/17 06:21:51;;;;;;;9.07;5.78;;;;;;;;;;4995770;28;20043;-42
2022/01/17 06:24:17;;;;;;;20.17;9.05;;;;;;;;;;4995656;28;20026;-41
2022/01/17 06:26:44;;;;;;;17.35;9.18;;;;;;;;;;4995530;28;20041;-42
2022/01/17 06:29:11;;;;;;;16.23;8.02;;;;;;;;;;4995790;28;20026;-44
2022/01/17 06:31:38;;;;;;;16.70;8.05;;;;;;;;;;4995427;28;20105;-41
2022/01/17 06:34:04;;;;;;;18.20;9.82;;;;;;;;;;4995674;28;20023;-43
2022/01/17 06:36:30;;;;;;;19.02;9.40;;;;;;;;;;4995705;28;20065;-43
2022/01/17 06:38:56;;;;;;;19.27;9.38;;;;;;;;;;4995490;28;20360;-42
2022/01/17 06:41:21;;;;;;;19.13;9.40;;;;;;;;;;4995095;28;20386;-42
2022/01/17 06:43:47;;;;;;;20.20;10.63;;;;;;;;;;4995348;28;20029;-43
2022/01/17 06:46:14;;;;;;;19.20;9.50;;;;;;;;;;4994779;28;20487;-45
2022/01/17 06:48:40;;;;;;;21.98;11.30;;;;;;;;;;4993956;28;20169;-42
2022/01/17 06:51:05;;;;;;;23.45;10.15;;;;;;;;;;4995410;28;20105;-42
2022/01/17 06:53:31;;;;;;;17.85;9.27;;;;;;;;;;4995036;28;20033;-41
2022/01/17 06:55:57;;;;;;;20.15;10.93;;;;;;;;;;4995388;28;20027;-42
2022/01/17 06:58:23;;;;;;;12.55;7.43;;;;;;;;;;4994689;28;20049;-42
2022/01/17 07:00:49;;;;;;;16.23;8.00;;;;;;;;;;4994945;28;20462;-45
2022/01/17 07:03:15;;;;;;;14.48;8.25;;;;;;;;;;4994870;28;20030;-41
2022/01/17 07:05:41;;;;;;;13.70;7.53;;;;;;;;;;4995171;28;20084;-42
2022/01/17 07:08:07;;;;;;;11.93;7.00;;;;;;;;;;4994877;28;20030;-43
2022/01/17 07:10:32;;;;;;;17.02;8.05;;;;;;;;;;4994785;28;20022;-44
2022/01/17 07:12:58;;;;;;;16.02;8.48;;;;;;;;;;4994696;28;20474;-46
2022/01/17 07:15:23;;;;;;;16.05;9.30;;;;;;;;;;4994644;28;20498;-42
2022/01/17 07:17:49;;;;;;;16.98;7.47;;;;;;;;;;4994891;28;20026;-45
2022/01/17 07:20:14;;;;;;;18.02;9.30;;;;;;;;;;4994467;28;20574;-42
2022/01/17 07:22:40;;;;;;;14.20;8.30;;;;;;;;;;4993009;28;20060;-42
2022/01/17 07:25:06;;;;;;;18.50;10.10;;;;;;;;;;4994395;28;20031;-42
2022/01/17 07:27:31;;;;;;;16.58;9.70;;;;;;;;;;4994438;28;20084;-44
2022/01/17 07:29:57;;;;;;;24.95;10.63;;;;;;;;;;4994379;28;20041;-43
2022/01/17 07:32:23;;;;;;;21.17;11.35;;;;;;;;;;4994637;28;20034;-43
2022/01/17 07:34:48;;;;;;;21.83;10.95;;;;;;;;;;4994508;28;20026;-44
2022/01/17 07:37:14;;;;;;;14.35;7.18;;;;;;;;;;4994441;28;20071;-42
2022/01/17 07:39:40;;;;;;;12.77;7.95;;;;;;;;;;4994066;28;20034;-43
2022/01/17 07:42:06;;;;;;;21.95;10.07;;;;;;;;;;4994425;28;20026;-46
2022/01/17 07:44:34;;;;;;;24.08;10.75;;;;;;;;;;4994420;28;20018;-43
2022/01/17 07:47:00;;;;;;;21.35;11.07;;;;;;;;;;4994360;28;20030;-42
2022/01/17 07:49:26;;;;;;;23.25;10.40;;;;;;;;;;4994222;28;20041;-42
2022/01/17 07:51:56;;;;;;;22.35;10.77;;;;;;;;;;4993985;28;20034;-43
2022/01/17 07:54:23;;;;;;;13.43;8.15;;;;;;;;;;4993917;28;20037;-42
2022/01/17 07:56:49;;;;;;;25.70;12.43;;;;;;;;;;4993676;28;20031;-43
2022/01/17 07:59:15;;;;;;;22.10;11.10;;;;;;;;;;4992898;28;20030;-42
2022/01/17 08:01:41;;;;;;;21.45;11.30;;;;;;;;;;4993774;28;20122;-44
2022/01/17 08:04:08;;;;;;;23.02;12.73;;;;;;;;;;4991919;28;20022;-42
2022/01/17 08:06:38;;;;;;;25.40;12.75;;;;;;;;;;4993675;28;20023;-44
2022/01/17 08:09:06;;;;;;;;;;;;;;;;;;4994381;28;20089;-46
2022/01/17 08:11:31;;;;;;;28.70;13.15;;;;;;;;;;4992535;28;19924;-44
2022/01/17 08:13:57;;;;;;;30.85;15.88;;;;;;;;;;4993550;28;20035;-47
2022/01/17 08:16:22;;;;;;;27.42;15.48;;;;;;;;;;4993552;28;20459;-45
2022/01/17 08:18:48;;;;;;;31.60;16.25;;;;;;;;;;4993651;28;20027;-42
2022/01/17 08:21:13;;;;;;;30.63;15.70;;;;;;;;;;4993483;28;20037;-43
2022/01/17 08:23:39;;;;;;;30.30;16.70;;;;;;;;;;4993356;28;20058;-45
2022/01/17 08:26:04;;;;;;;30.20;16.08;;;;;;;;;;4993666;28;20022;-46
2022/01/17 08:28:30;;;;;;;34.58;16.98;;;;;;;;;;4993296;28;20502;-43
2022/01/17 08:30:55;;;;;;;29.83;15.18;;;;;;;;;;4993541;28;20038;-45
2022/01/17 08:33:22;;;;;;;31.70;17.23;;;;;;;;;;4993445;28;20073;-45
2022/01/17 08:35:48;;;;;;;39.58;16.63;;;;;;;;;;4993461;28;20033;-44
2022/01/17 08:38:13;;;;;;;37.00;17.88;;;;;;;;;;4975399;28;20034;-45
2022/01/17 08:40:39;;;;;;;31.88;16.85;;;;;;;;;;4993234;28;20113;-47
2022/01/17 08:43:04;;;;;;;33.58;16.02;;;;;;;;;;4993195;28;20069;-47
2022/01/17 08:45:30;;;;;;;32.20;17.98;;;;;;;;;;4993364;28;20026;-45
2022/01/17 08:47:55;;;;;;;31.73;17.77;;;;;;;;;;4992463;28;20144;-42
2022/01/17 08:50:22;;;;;;;31.33;17.17;;;;;;;;;;4992996;28;20034;-44
2022/01/17 08:52:48;;;;;;;31.02;16.25;;;;;;;;;;4993008;28;20022;-47
2022/01/17 08:55:15;;;;;;;31.92;17.00;;;;;;;;;;4993269;28;20386;-45
2022/01/17 08:57:41;;;;;;;28.90;16.50;;;;;;;;;;4992975;28;20069;-43
2022/01/17 09:00:12;;;;;;;34.60;17.50;;;;;;;;;;4993171;28;20462;-44
2022/01/17 09:02:39;;;;;;;34.17;17.67;;;;;;;;;;4993132;28;20030;-44
2022/01/17 09:05:04;;;;;;;33.45;16.65;;;;;;;;;;4992317;28;20026;-41
2022/01/17 09:07:30;;;;;;;28.75;16.15;;;;;;;;;;4992347;28;20356;-44
2022/01/17 09:09:55;;;;;;;34.17;17.30;;;;;;;;;;4990778;28;20026;-44
2022/01/17 09:12:21;;;;;;;31.23;15.35;;;;;;;;;;4996678;28;20029;-45
2022/01/17 09:14:46;;;;;;;29.27;16.52;;;;;;;;;;4996733;28;20030;-43
2022/01/17 09:17:12;;;;;;;34.53;16.92;;;;;;;;;;4996829;28;20066;-41
2022/01/17 09:19:39;;;;;;;39.08;18.20;;;;;;;;;;4996680;28;20125;-46
2022/01/17 09:22:07;;;;;;;33.17;17.70;;;;;;;;;;4995938;28;20023;-45
2022/01/17 09:24:33;;;;;;;29.75;17.05;;;;;;;;;;4996468;28;20034;-45
2022/01/17 09:26:59;;;;;;;34.28;17.63;;;;;;;;;;4995932;28;20033;-44
2022/01/17 09:29:24;;;;;;;29.15;15.98;;;;;;;;;;4995491;28;20026;-45
2022/01/17 09:31:49;;;;;;;32.05;16.17;;;;;;;;;;4996081;28;20030;-44
2022/01/17 09:34:15;;;;;;;31.88;15.70;;;;;;;;;;4996259;28;20026;-45
2022/01/17 09:36:41;;;;;;;37.03;19.55;;;;;;;;;;4995623;28;20390;-45
2022/01/17 09:39:08;;;;;;;32.05;16.90;;;;;;;;;;4995853;28;20029;-37
2022/01/17 09:41:34;;;;;;;32.83;16.75;;;;;;;;;;4996159;28;20034;-38
2022/01/17 09:44:00;;;;;;;32.35;16.50;;;;;;;;;;4995519;28;20022;-39
2022/01/17 09:46:32;;;;;;;33.63;15.63;;;;;;;;;;4996391;28;20041;-43
2022/01/17 09:49:12;;;;;;;31.88;17.27;;;;;;;;;;4994974;28;20030;-38
2022/01/17 09:52:05;;;;;;;;;;;;;;;;;;4996815;28;20030;-39
2022/01/17 09:54:30;;;;;;;27.13;15.85;;;;;;;;;;4995988;28;19913;-39
2022/01/17 09:56:57;;;;;;;31.10;17.50;;;;;;;;;;4996037;28;20084;-40
2022/01/17 09:59:24;;;;;;;34.45;17.88;;;;;;;;;;4995387;28;20050;-38
2022/01/17 10:01:50;;;;;;;35.50;17.60;;;;;;;;;;4995619;28;20479;-38
2022/01/17 10:04:17;;;;;;;35.70;17.55;;;;;;;;;;4996213;28;20037;-40
2022/01/17 10:06:50;;;;;;;29.42;17.17;;;;;;;;;;4996031;28;20026;-40
2022/01/17 10:09:21;;;;;;;34.83;18.17;;;;;;;;;;4995781;28;20360;-43
2022/01/17 10:12:02;;;;;;;30.52;17.50;;;;;;;;;;4995991;28;20033;-39
2022/01/17 10:14:31;;;;;;;38.58;18.50;;;;;;;;;;4995839;28;20479;-39
2022/01/17 10:16:56;;;;;;;31.10;17.85;;;;;;;;;;4995773;28;20022;-42
2022/01/17 10:19:24;;;;;;;31.48;17.02;;;;;;;;;;4994789;28;20038;-42
2022/01/17 10:21:53;;;;;;;30.85;18.25;;;;;;;;;;4994753;28;20062;-38
2022/01/17 10:30:31;;;;;;;29.95;17.63;;;;;;;;;;4995576;28;19925;-45
2022/01/17 10:35:52;;;;;;;34.67;17.45;;;;;;;;;;4995481;28;20034;-39
2022/01/17 10:38:23;;;;;;;33.47;16.83;;;;;;;;;;4995509;28;20029;-42
2022/01/17 10:40:56;;;;;;;31.52;17.65;;;;;;;;;;4995097;28;20026;-46
2022/01/17 10:43:25;;;;;;;30.63;17.35;;;;;;;;;;4994990;28;20505;-43
2022/01/17 10:45:52;;;;;;;33.37;18.47;;;;;;;;;;4995032;28;20474;-38
2022/01/17 10:48:17;;;;;;;38.90;19.70;;;;;;;;;;4994955;28;20109;-38
2022/01/17 10:50:47;;;;;;;32.80;18.23;;;;;;;;;;4994774;28;20490;-38
2022/01/17 10:53:16;;;;;;;31.83;18.25;;;;;;;;;;4991852;28;20100;-41
2022/01/17 10:55:56;;;;;;;36.15;19.58;;;;;;;;;;4992236;28;20047;-41
2022/01/17 10:58:25;;;;;;;38.92;20.65;;;;;;;;;;4993353;28;20030;-42
2022/01/17 11:00:54;;;;;;;31.25;18.48;;;;;;;;;;4993270;28;20042;-40
2022/01/17 11:03:24;;;;;;;33.83;18.67;;;;;;;;;;4992637;28;20034;-39
2022/01/17 11:05:53;;;;;;;34.72;19.23;;;;;;;;;;4993419;28;20021;-42
2022/01/17 11:08:24;;;;;;;33.13;18.23;;;;;;;;;;4993031;28;20042;-40
2022/01/17 11:10:53;;;;;;;35.38;19.13;;;;;;;;;;4992811;28;20025;-39
2022/01/17 11:13:20;;;;;;;34.95;19.25;;;;;;;;;;4993367;28;20077;-39
2022/01/17 11:15:49;;;;;;;33.53;18.20;;;;;;;;;;4993421;28;20118;-38
2022/01/17 11:18:20;;;;;;;33.90;19.50;;;;;;;;;;4993203;28;20629;-42
2022/01/17 11:20:47;;;;;;;35.00;18.95;;;;;;;;;;4993109;28;20276;-37
2022/01/17 11:23:13;;;;;;;32.65;18.52;;;;;;;;;;4991803;28;20533;-38
2022/01/17 11:25:45;;;;;;;39.92;20.50;;;;;;;;;;4991374;28;20034;-41
2022/01/17 11:28:14;;;;;;;33.47;18.05;;;;;;;;;;4993108;28;20030;-46
2022/01/17 11:30:40;;;;;;;31.75;17.30;;;;;;;;;;4992550;28;20061;-46
2022/01/17 11:33:08;;;;;;;32.80;17.90;;;;;;;;;;4990448;28;20066;-38
2022/01/17 11:35:34;;;;;;;33.28;17.30;;;;;;;;;;4990534;28;20641;-38
2022/01/17 11:38:02;;;;;;;30.45;17.17;;;;;;;;;;4992599;28;20077;-44
2022/01/17 11:40:28;;;;;;;31.75;17.48;;;;;;;;;;4992731;28;20038;-39
2022/01/17 11:42:54;;;;;;;31.52;16.30;;;;;;;;;;4992554;28;20037;-42
2022/01/17 11:45:22;;;;;;;27.65;15.95;;;;;;;;;;4992464;28;20076;-45
2022/01/17 11:47:48;;;;;;;28.33;16.23;;;;;;;;;;4992888;28;20038;-38
2022/01/17 11:50:32;;;;;;;29.17;16.90;;;;;;;;;;4992795;28;20036;-37
2022/01/17 11:53:19;;;;;;;28.02;15.95;;;;;;;;;;4992378;28;20065;-42
2022/01/17 11:55:47;;;;;;;28.15;16.55;;;;;;;;;;4992081;28;20416;-38
2022/01/17 11:58:26;;;;;;;34.58;16.58;;;;;;;;;;4991717;28;20030;-39
2022/01/17 12:01:00;;;;;;;27.77;16.08;;;;;;;;;;4991938;28;20050;-38
2022/01/17 12:03:27;;;;;;;31.80;16.63;;;;;;;;;;4992032;28;20045;-46
2022/01/17 12:06:00;;;;;;;31.90;17.50;;;;;;;;;;4992431;28;20033;-39
2022/01/17 12:08:27;;;;;;;29.02;16.58;;;;;;;;;;4992189;28;20130;-42
2022/01/17 12:10:58;;;;;;;27.88;16.33;;;;;;;;;;4992052;28;20482;-49
2022/01/17 12:13:34;;;;;;;27.35;15.95;;;;;;;;;;4992339;28;20053;-48
2022/01/17 12:16:17;;;;;;;26.85;15.68;;;;;;;;;;4991658;28;20037;-41
2022/01/17 12:18:54;;;;;;;30.83;16.02;;;;;;;;;;4991998;28;20100;-45
2022/01/17 12:21:40;;;;;;;28.80;15.98;;;;;;;;;;4992073;28;20390;-43
2022/01/17 12:24:18;;;;;;;27.75;16.17;;;;;;;;;;4992250;28;20030;-43
2022/01/17 12:27:01;;;;;;;28.90;16.20;;;;;;;;;;4992174;28;20382;-45
2022/01/17 12:29:39;;;;;;;31.55;16.40;;;;;;;;;;4991780;28;20041;-42
2022/01/17 12:32:21;;;;;;;28.55;15.15;;;;;;;;;;4992120;28;20030;-44
2022/01/17 12:34:48;;;;;;;30.20;17.42;;;;;;;;;;4991766;28;20037;-40
2022/01/17 12:37:31;;;;;;;28.80;15.60;;;;;;;;;;4991676;28;20534;-45
2022/01/17 12:40:10;;;;;;;31.13;17.50;;;;;;;;;;4991621;28;20118;-44
2022/01/17 12:42:54;;;;;;;31.85;16.73;;;;;;;;;;4991892;28;20072;-42
2022/01/17 12:45:35;;;;;;;29.02;16.45;;;;;;;;;;4991540;28;20109;-45
2022/01/17 12:48:05;;;;;;;29.13;16.60;;;;;;;;;;4991803;28;20030;-45
2022/01/17 12:50:32;;;;;;;30.25;16.08;;;;;;;;;;4991438;28;20502;-43
2022/01/17 12:52:59;;;;;;;31.85;16.42;;;;;;;;;;4991568;28;20584;-44
2022/01/17 12:55:31;;;;;;;31.17;16.52;;;;;;;;;;4991874;28;20030;-45
2022/01/17 12:57:56;;;;;;;31.83;15.93;;;;;;;;;;4990199;28;20054;-47
2022/01/17 13:00:28;;;;;;;25.75;15.38;;;;;;;;;;4990565;28;20088;-45
2022/01/17 13:02:55;;;;;;;37.53;15.15;;;;;;;;;;4991380;28;20046;-44
2022/01/17 13:05:27;;;;;;;29.75;15.90;;;;;;;;;;4991463;28;20754;-40
2022/01/17 13:07:53;;;;;;;29.65;16.45;;;;;;;;;;4991751;28;20038;-43
2022/01/17 13:10:19;;;;;;;40.45;16.38;;;;;;;;;;4991626;28;20035;-43
2022/01/17 13:12:48;;;;;;;34.60;17.00;;;;;;;;;;4991072;28;20018;-44
2022/01/17 13:15:14;;;;;;;29.23;16.40;;;;;;;;;;4991645;28;20023;-41
2022/01/17 13:17:40;;;;;;;28.67;15.82;;;;;;;;;;4991544;28;20124;-45
2022/01/17 13:20:07;;;;;;;29.35;16.20;;;;;;;;;;4991294;28;20918;-40
2022/01/17 13:22:52;;;;;;;32.65;16.88;;;;;;;;;;4991202;28;20097;-49
2022/01/17 13:25:17;;;;;;;33.20;17.10;;;;;;;;;;4991601;28;20050;-44
2022/01/17 13:27:44;;;;;;;27.98;16.13;;;;;;;;;;4991315;28;20479;-44
2022/01/17 13:30:12;;;;;;;33.80;16.33;;;;;;;;;;4990964;28;20541;-46
2022/01/17 13:32:38;;;;;;;31.60;15.57;;;;;;;;;;4990785;28;20045;-46
2022/01/17 13:35:14;;;;;;;29.15;15.57;;;;;;;;;;4991249;28;20034;-40
2022/01/17 13:37:40;;;;;;;63.45;44.03;;;;;;;;;;4990799;28;20037;-42
2022/01/17 13:40:13;;;;;;;31.10;15.68;;;;;;;;;;4990988;28;20042;-39
2022/01/17 13:42:51;;;;;;;27.55;15.48;;;;;;;;;;4990106;28;20505;-43
2022/01/17 13:45:35;;;;;;;26.67;14.48;;;;;;;;;;4990945;28;20018;-46
2022/01/17 13:48:03;;;;;;;26.10;14.80;;;;;;;;;;4991357;28;20030;-45
2022/01/17 13:50:29;;;;;;;25.27;15.00;;;;;;;;;;4990630;28;20030;-42
2022/01/17 13:52:55;;;;;;;26.48;14.55;;;;;;;;;;4991296;28;20026;-46
2022/01/17 13:55:47;;;;;;;29.38;14.93;;;;;;;;;;4991293;28;20126;-45
2022/01/17 13:58:15;;;;;;;26.88;14.68;;;;;;;;;;4992922;28;20041;-48
2022/01/17 14:00:45;;;;;;;31.98;15.05;;;;;;;;;;4993594;28;20027;-40
2022/01/17 14:03:13;;;;;;;29.83;16.20;;;;;;;;;;4994748;28;20038;-42
2022/01/17 14:05:44;;;;;;;34.15;16.60;;;;;;;;;;4994595;28;20027;-46
2022/01/17 14:08:13;;;;;;;27.20;14.68;;;;;;;;;;4994427;28;20030;-45
2022/01/17 14:10:49;;;;;;;27.73;15.80;;;;;;;;;;4994375;28;20506;-45
2022/01/17 14:13:21;;;;;;;25.83;14.98;;;;;;;;;;4994630;28;20038;-45
2022/01/17 14:15:48;;;;;;;27.83;14.57;;;;;;;;;;4994328;28;20494;-45
2022/01/17 14:18:14;;;;;;;24.60;13.82;;;;;;;;;;4994367;28;20116;-43
2022/01/17 14:20:48;;;;;;;26.35;13.50;;;;;;;;;;4994625;28;20054;-45
2022/01/17 14:23:39;;;;;;;28.20;13.88;;;;;;;;;;4993049;28;20041;-43
2022/01/17 14:26:05;;;;;;;29.90;13.15;;;;;;;;;;4992968;28;20529;-45
2022/01/17 14:28:33;;;;;;;22.00;11.85;;;;;;;;;;4994132;28;20042;-44
2022/01/17 14:31:12;;;;;;;25.33;12.95;;;;;;;;;;4994059;28;20077;-45
2022/01/17 14:33:38;;;;;;;20.83;10.57;;;;;;;;;;4994025;28;20030;-42
2022/01/17 14:36:06;;;;;;;22.10;11.27;;;;;;;;;;4994281;28;20029;-43
2022/01/17 14:38:33;;;;;;;19.67;10.48;;;;;;;;;;4994287;28;20121;-44
2022/01/17 14:40:59;;;;;;;19.52;9.80;;;;;;;;;;4993908;28;20022;-43
2022/01/17 14:43:34;;;;;;;18.85;9.95;;;;;;;;;;4994199;28;20121;-44
2022/01/17 14:46:05;;;;;;;25.20;12.15;;;;;;;;;;4993755;28;20701;-47
2022/01/17 14:48:51;;;;;;;27.00;13.55;;;;;;;;;;4993861;28;20038;-43